Time;durP1;ratioP1;P1;durP2;ratioP2;P2;SDS_P1;SDS_P2;PMS_P1;PMS_P2;Temp;Humidity;BMP_temperature;BMP_pressure;BME280_temperature;BME280_humidity;BME280_pressure;Samples;Min_cycle;Max_cycle;Signal;HPM_P1;HPM_P2
2021/12/13 00:00:37;;;;;;;17.73;8.48;;;;;;;;;;5116861;28;20040;-74
2021/12/13 00:03:38;;;;;;;21.23;8.65;;;;;;;;;;5116777;28;20019;-70
2021/12/13 00:06:14;;;;;;;18.77;8.27;;;;;;;;;;5114507;28;20418;-72
2021/12/13 00:08:43;;;;;;;16.85;7.95;;;;;;;;;;5116813;28;20028;-69
2021/12/13 00:11:17;;;;;;;14.60;7.32;;;;;;;;;;5116910;28;20502;-72
2021/12/13 00:14:12;;;;;;;14.23;7.20;;;;;;;;;;5116425;28;20024;-72
2021/12/13 00:16:41;;;;;;;14.27;7.22;;;;;;;;;;5116541;28;20369;-73
2021/12/13 00:19:11;;;;;;;15.43;7.90;;;;;;;;;;5116657;28;20077;-71
2021/12/13 00:21:44;;;;;;;15.68;7.00;;;;;;;;;;5116388;28;20122;-69
2021/12/13 00:24:20;;;;;;;17.00;6.95;;;;;;;;;;5116658;28;20456;-73
2021/12/13 00:26:50;;;;;;;13.82;6.32;;;;;;;;;;5116757;27;20539;-73
2021/12/13 00:29:19;;;;;;;16.13;6.82;;;;;;;;;;5116444;28;20040;-71
2021/12/13 00:32:04;;;;;;;13.43;6.63;;;;;;;;;;5108779;28;20027;-72
2021/12/13 00:34:46;;;;;;;14.35;6.57;;;;;;;;;;5116306;27;20377;-72
2021/12/13 00:37:19;;;;;;;14.52;6.57;;;;;;;;;;5116426;28;20027;-71
2021/12/13 00:39:51;;;;;;;13.55;6.78;;;;;;;;;;5115057;28;20423;-69
2021/12/13 00:42:19;;;;;;;14.55;7.43;;;;;;;;;;5116090;28;20531;-71
2021/12/13 00:44:48;;;;;;;12.35;6.80;;;;;;;;;;5115794;28;20077;-70
2021/12/13 00:47:20;;;;;;;12.45;6.10;;;;;;;;;;5116360;28;20042;-73
2021/12/13 00:49:52;;;;;;;14.07;6.85;;;;;;;;;;5116152;28;20487;-70
2021/12/13 00:52:19;;;;;;;11.95;6.50;;;;;;;;;;5116084;28;20031;-70
2021/12/13 00:54:46;;;;;;;14.32;6.82;;;;;;;;;;5115897;28;20089;-74
2021/12/13 00:57:39;;;;;;;13.65;6.25;;;;;;;;;;5116318;28;20054;-72
2021/12/13 01:00:09;;;;;;;13.77;6.40;;;;;;;;;;5115911;28;20027;-71
2021/12/13 01:02:44;;;;;;;13.88;6.13;;;;;;;;;;5115808;28;20061;-72
2021/12/13 01:05:18;;;;;;;11.98;5.72;;;;;;;;;;5114805;28;20398;-72
2021/12/13 01:08:01;;;;;;;11.80;5.90;;;;;;;;;;5115570;28;20039;-73
2021/12/13 01:10:40;;;;;;;9.63;5.00;;;;;;;;;;5115613;28;20035;-71
2021/12/13 01:13:20;;;;;;;13.57;5.20;;;;;;;;;;5115796;27;20031;-70
2021/12/13 01:15:53;;;;;;;10.40;5.20;;;;;;;;;;5115357;28;20436;-73
2021/12/13 01:18:30;;;;;;;11.23;4.93;;;;;;;;;;5115710;27;20040;-74
2021/12/13 01:21:04;;;;;;;10.18;4.80;;;;;;;;;;5115258;28;20085;-74
2021/12/13 01:23:48;;;;;;;10.25;4.65;;;;;;;;;;5115384;28;20036;-73
2021/12/13 01:26:37;;;;;;;10.55;4.43;;;;;;;;;;5115628;28;20089;-73
2021/12/13 01:29:17;;;;;;;9.02;4.25;;;;;;;;;;5115086;28;20042;-72
2021/12/13 01:31:53;;;;;;;8.93;4.18;;;;;;;;;;5106818;28;20036;-73
2021/12/13 01:34:22;;;;;;;9.93;4.22;;;;;;;;;;5115082;27;20034;-72
2021/12/13 01:37:02;;;;;;;9.43;4.18;;;;;;;;;;5115174;28;20030;-70
2021/12/13 01:39:30;;;;;;;8.63;4.50;;;;;;;;;;5115098;28;20040;-71
2021/12/13 01:42:01;;;;;;;7.65;4.35;;;;;;;;;;5115194;28;20046;-72
2021/12/13 01:44:34;;;;;;;9.40;4.45;;;;;;;;;;5114776;28;20081;-70
2021/12/13 01:47:08;;;;;;;9.77;4.75;;;;;;;;;;5115162;28;20104;-73
2021/12/13 01:49:39;;;;;;;10.20;4.40;;;;;;;;;;5114899;28;20043;-71
2021/12/13 01:52:19;;;;;;;11.38;4.72;;;;;;;;;;5114722;27;20042;-71
2021/12/13 01:54:46;;;;;;;9.65;4.60;;;;;;;;;;5114682;28;20464;-74
2021/12/13 02:00:08;;;;;;;8.45;4.30;;;;;;;;;;5114443;28;20024;-74
2021/12/13 02:02:39;;;;;;;12.18;5.03;;;;;;;;;;5114606;28;20032;-72
2021/12/13 02:05:16;;;;;;;10.45;4.95;;;;;;;;;;5114523;28;20042;-71
2021/12/13 02:08:06;;;;;;;10.90;4.93;;;;;;;;;;5114482;28;20345;-71
2021/12/13 02:10:38;;;;;;;13.68;5.22;;;;;;;;;;5114269;28;20114;-70
2021/12/13 02:13:09;;;;;;;10.35;5.10;;;;;;;;;;5114373;28;20453;-70
2021/12/13 02:18:25;;;;;;;13.50;5.05;;;;;;;;;;5114668;28;20043;-72
2021/12/13 02:21:02;;;;;;;9.77;4.97;;;;;;;;;;5114002;27;20059;-71
2021/12/13 02:23:29;;;;;;;11.20;5.13;;;;;;;;;;5114108;28;20487;-72
2021/12/13 02:25:57;;;;;;;11.32;4.85;;;;;;;;;;5114218;28;20036;-72
2021/12/13 02:28:27;;;;;;;13.45;5.50;;;;;;;;;;5114362;28;20061;-71
2021/12/13 02:30:58;;;;;;;15.32;5.32;;;;;;;;;;5113501;28;20392;-72
2021/12/13 02:33:29;;;;;;;12.45;5.10;;;;;;;;;;5114285;28;20024;-73
2021/12/13 02:36:03;;;;;;;11.45;4.78;;;;;;;;;;5114139;28;20028;-71
2021/12/13 02:38:29;;;;;;;10.35;3.92;;;;;;;;;;5113086;28;20054;-70
2021/12/13 02:40:55;;;;;;;10.93;4.47;;;;;;;;;;5113688;28;20459;-73
2021/12/13 02:43:27;;;;;;;9.52;4.20;;;;;;;;;;5114202;28;20107;-71
2021/12/13 02:45:56;;;;;;;12.10;4.32;;;;;;;;;;5113822;28;20369;-71
2021/12/13 02:48:27;;;;;;;13.77;4.32;;;;;;;;;;5114035;28;20407;-71
2021/12/13 02:51:01;;;;;;;9.95;3.85;;;;;;;;;;5113511;28;20383;-73
2021/12/13 02:53:33;;;;;;;9.75;3.75;;;;;;;;;;5114024;28;20027;-73
2021/12/13 02:55:59;;;;;;;9.50;3.90;;;;;;;;;;5112942;28;20372;-70
2021/12/13 02:58:28;;;;;;;8.55;3.60;;;;;;;;;;5113864;28;20470;-72
2021/12/13 03:01:04;;;;;;;8.95;3.85;;;;;;;;;;5113508;28;20110;-72
2021/12/13 03:03:33;;;;;;;7.95;3.20;;;;;;;;;;5116556;28;20036;-73
2021/12/13 03:06:02;;;;;;;7.10;3.42;;;;;;;;;;5118165;28;20024;-74
2021/12/13 03:08:41;;;;;;;8.05;3.42;;;;;;;;;;5118131;28;20036;-69
2021/12/13 03:11:11;;;;;;;7.38;3.28;;;;;;;;;;5117945;28;20024;-70
2021/12/13 03:13:38;;;;;;;8.43;3.58;;;;;;;;;;5117946;28;20521;-72
2021/12/13 03:16:16;;;;;;;7.50;2.90;;;;;;;;;;5117980;28;20380;-73
2021/12/13 03:18:54;;;;;;;8.32;2.90;;;;;;;;;;5117896;28;20464;-71
2021/12/13 03:21:53;;;;;;;7.25;3.08;;;;;;;;;;5117561;28;20139;-71
2021/12/13 03:24:44;;;;;;;6.40;3.00;;;;;;;;;;5117794;28;20035;-74
2021/12/13 03:27:12;;;;;;;;;;;;;;;;;;5117609;28;20392;-70
2021/12/13 03:29:53;;;;;;;4.90;2.30;;;;;;;;;;5116658;27;20014;-70
2021/12/13 03:32:20;;;;;;;;;;;;;;;;;;5117792;28;20042;-70
2021/12/13 03:35:09;;;;;;;4.93;2.10;;;;;;;;;;5117555;28;19916;-70
2021/12/13 03:37:36;;;;;;;4.95;2.33;;;;;;;;;;5117386;28;20114;-74
2021/12/13 03:40:18;;;;;;;4.85;2.20;;;;;;;;;;5117602;28;20532;-73
2021/12/13 03:42:52;;;;;;;5.15;2.30;;;;;;;;;;5117246;27;20047;-73
2021/12/13 03:45:33;;;;;;;8.02;2.30;;;;;;;;;;5117477;28;20034;-71
2021/12/13 03:48:00;;;;;;;4.22;2.15;;;;;;;;;;5117280;28;20448;-71
2021/12/13 03:50:32;;;;;;;5.25;2.40;;;;;;;;;;5117007;28;20067;-71
2021/12/13 03:53:01;;;;;;;5.35;2.15;;;;;;;;;;5116440;28;20032;-70
2021/12/13 03:55:31;;;;;;;4.18;2.00;;;;;;;;;;5117129;28;20482;-72
2021/12/13 03:58:04;;;;;;;;;;;;;;;;;;5117793;28;20031;-71
2021/12/13 04:00:33;;;;;;;4.70;2.05;;;;;;;;;;5116993;28;19961;-70
2021/12/13 04:03:02;;;;;;;4.90;1.93;;;;;;;;;;5116832;28;20085;-72
2021/12/13 04:05:30;;;;;;;4.72;2.15;;;;;;;;;;5117037;28;20035;-71
2021/12/13 04:08:03;;;;;;;5.25;2.03;;;;;;;;;;5116645;28;20036;-73
2021/12/13 04:10:33;;;;;;;4.63;1.80;;;;;;;;;;5116840;28;20035;-73
2021/12/13 04:13:08;;;;;;;4.68;2.15;;;;;;;;;;5116832;28;20020;-72
2021/12/13 04:16:10;;;;;;;4.07;1.70;;;;;;;;;;5116549;28;20468;-72
2021/12/13 04:21:21;;;;;;;4.20;1.90;;;;;;;;;;5116388;28;20048;-70
2021/12/13 04:23:56;;;;;;;4.05;2.00;;;;;;;;;;5116508;28;20464;-71
2021/12/13 04:26:23;;;;;;;4.07;1.60;;;;;;;;;;5116595;28;20039;-70
2021/12/13 04:28:57;;;;;;;4.45;1.70;;;;;;;;;;5116505;27;20510;-73
2021/12/13 04:31:29;;;;;;;5.22;1.88;;;;;;;;;;5114762;28;20052;-70
2021/12/13 04:33:59;;;;;;;4.32;1.73;;;;;;;;;;5116208;28;20047;-69
2021/12/13 04:36:43;;;;;;;4.70;1.90;;;;;;;;;;5116464;28;20384;-69
2021/12/13 04:39:27;;;;;;;4.93;2.00;;;;;;;;;;5115307;28;20142;-72
2021/12/13 04:42:02;;;;;;;8.15;1.95;;;;;;;;;;5115887;28;20063;-71
2021/12/13 04:44:39;;;;;;;4.13;1.75;;;;;;;;;;5116290;28;20069;-72
2021/12/13 04:47:14;;;;;;;3.97;1.90;;;;;;;;;;5108536;28;20372;-71
2021/12/13 04:49:46;;;;;;;4.20;1.90;;;;;;;;;;5116108;28;20364;-72
2021/12/13 04:52:17;;;;;;;4.43;1.80;;;;;;;;;;5115828;28;20059;-72
2021/12/13 04:54:47;;;;;;;4.55;2.05;;;;;;;;;;5115989;28;20483;-73
2021/12/13 04:57:13;;;;;;;3.28;1.60;;;;;;;;;;5116066;28;20480;-74
2021/12/13 04:59:39;;;;;;;4.28;1.98;;;;;;;;;;5115961;28;20028;-70
2021/12/13 05:02:10;;;;;;;4.28;2.03;;;;;;;;;;5115704;28;20047;-72
2021/12/13 05:04:36;;;;;;;4.55;1.85;;;;;;;;;;5115643;28;20464;-71
2021/12/13 05:07:04;;;;;;;5.30;1.90;;;;;;;;;;5115859;28;20114;-70
2021/12/13 05:09:31;;;;;;;3.80;1.92;;;;;;;;;;5115899;28;20504;-73
2021/12/13 05:12:09;;;;;;;5.10;2.20;;;;;;;;;;5115043;28;20464;-72
2021/12/13 05:14:45;;;;;;;4.95;2.15;;;;;;;;;;5115412;28;20028;-74
2021/12/13 05:17:23;;;;;;;5.43;2.30;;;;;;;;;;5114660;28;20076;-69
2021/12/13 05:19:59;;;;;;;4.43;1.95;;;;;;;;;;5115298;28;20044;-74
2021/12/13 05:22:25;;;;;;;5.68;2.20;;;;;;;;;;5115369;28;20108;-72
2021/12/13 05:25:00;;;;;;;8.77;2.25;;;;;;;;;;5114788;28;20044;-74
2021/12/13 05:27:30;;;;;;;3.95;2.00;;;;;;;;;;5115488;28;20027;-72
2021/12/13 05:30:20;;;;;;;5.88;2.30;;;;;;;;;;5113306;28;20024;-74
2021/12/13 05:33:01;;;;;;;4.32;1.92;;;;;;;;;;5114186;28;20112;-71
2021/12/13 05:35:32;;;;;;;4.28;1.50;;;;;;;;;;5115364;28;20031;-73
2021/12/13 05:38:02;;;;;;;5.93;1.98;;;;;;;;;;5115219;28;20035;-72
2021/12/13 05:40:42;;;;;;;4.68;1.63;;;;;;;;;;5115216;28;20065;-72
2021/12/13 05:43:24;;;;;;;6.80;1.88;;;;;;;;;;5115113;28;20510;-74
2021/12/13 05:46:08;;;;;;;8.00;1.90;;;;;;;;;;5114941;28;20080;-69
2021/12/13 05:48:34;;;;;;;4.57;1.80;;;;;;;;;;5114873;28;20472;-70
2021/12/13 05:51:03;;;;;;;5.10;1.70;;;;;;;;;;5114952;28;20069;-71
2021/12/13 05:53:38;;;;;;;7.75;2.40;;;;;;;;;;5115096;28;20030;-73
2021/12/13 05:56:13;;;;;;;4.25;1.80;;;;;;;;;;5114699;28;20150;-72
2021/12/13 05:58:42;;;;;;;6.28;2.00;;;;;;;;;;5114780;28;20031;-70
2021/12/13 06:01:14;;;;;;;5.22;1.98;;;;;;;;;;5114668;28;20205;-70
2021/12/13 06:03:44;;;;;;;3.78;1.88;;;;;;;;;;5114487;27;20031;-73
2021/12/13 06:06:15;;;;;;;5.10;1.83;;;;;;;;;;5114853;28;20053;-72
2021/12/13 06:08:48;;;;;;;3.72;1.52;;;;;;;;;;5114545;28;20040;-69
2021/12/13 06:11:32;;;;;;;4.72;1.48;;;;;;;;;;5114371;28;20448;-73
2021/12/13 06:14:14;;;;;;;3.97;1.77;;;;;;;;;;5114403;28;20033;-72
2021/12/13 06:16:44;;;;;;;5.43;1.67;;;;;;;;;;5114752;28;20031;-73
2021/12/13 06:19:23;;;;;;;3.38;1.60;;;;;;;;;;5114688;28;20081;-73
2021/12/13 06:22:04;;;;;;;4.40;1.70;;;;;;;;;;5113838;28;20052;-73
2021/12/13 06:24:40;;;;;;;5.38;2.05;;;;;;;;;;5114178;28;20031;-70
2021/12/13 06:27:12;;;;;;;6.10;2.17;;;;;;;;;;5114145;28;20038;-70
2021/12/13 06:29:52;;;;;;;6.63;2.10;;;;;;;;;;5112330;28;20031;-71
2021/12/13 06:32:23;;;;;;;2.47;1.60;;;;;;;;;;5107279;28;20479;-70
2021/12/13 06:34:49;;;;;;;5.53;2.10;;;;;;;;;;5114288;28;20036;-73
2021/12/13 06:37:22;;;;;;;4.97;2.10;;;;;;;;;;5113262;28;20027;-71
2021/12/13 06:39:48;;;;;;;5.85;2.90;;;;;;;;;;5113895;28;20346;-71
2021/12/13 06:42:14;;;;;;;8.50;2.55;;;;;;;;;;5113788;28;20024;-71
2021/12/13 06:44:46;;;;;;;7.10;2.60;;;;;;;;;;5113866;28;20192;-71
2021/12/13 06:47:19;;;;;;;4.85;2.40;;;;;;;;;;5113990;28;20024;-73
2021/12/13 06:49:55;;;;;;;8.45;2.70;;;;;;;;;;5113831;28;20402;-70
2021/12/13 06:52:34;;;;;;;5.13;2.58;;;;;;;;;;5113944;28;20059;-70
2021/12/13 06:55:06;;;;;;;6.78;2.38;;;;;;;;;;5113725;28;20027;-70
2021/12/13 06:57:36;;;;;;;5.97;2.70;;;;;;;;;;5113891;28;20053;-72
2021/12/13 07:00:26;;;;;;;8.07;2.38;;;;;;;;;;5113805;28;20487;-70
2021/12/13 07:03:32;;;;;;;7.82;3.10;;;;;;;;;;5113322;28;20042;-71
2021/12/13 07:06:00;;;;;;;7.60;2.70;;;;;;;;;;5085118;28;20031;-70
2021/12/13 07:08:34;;;;;;;8.60;3.38;;;;;;;;;;5113828;28;20038;-72
2021/12/13 07:11:12;;;;;;;7.55;3.42;;;;;;;;;;5113704;28;20028;-71
2021/12/13 07:14:04;;;;;;;10.13;3.30;;;;;;;;;;5113500;28;20020;-71
2021/12/13 07:16:34;;;;;;;10.65;4.30;;;;;;;;;;5109190;28;20043;-70
2021/12/13 07:19:26;;;;;;;11.35;5.22;;;;;;;;;;5113602;28;20019;-70
2021/12/13 07:21:58;;;;;;;12.88;4.60;;;;;;;;;;5113008;28;20072;-71
2021/12/13 07:24:43;;;;;;;7.20;3.67;;;;;;;;;;5113781;28;20108;-70
2021/12/13 07:27:19;;;;;;;7.47;2.97;;;;;;;;;;5113489;28;20164;-70
2021/12/13 07:30:11;;;;;;;11.90;3.92;;;;;;;;;;5110757;28;20031;-71
2021/12/13 07:32:46;;;;;;;15.65;4.80;;;;;;;;;;5107496;28;20063;-71
2021/12/13 07:35:18;;;;;;;10.48;3.97;;;;;;;;;;5113496;28;20024;-71
2021/12/13 07:37:58;;;;;;;17.00;5.53;;;;;;;;;;5113578;28;20024;-71
2021/12/13 07:40:43;;;;;;;9.68;4.60;;;;;;;;;;5113527;28;20375;-71
2021/12/13 07:43:33;;;;;;;11.80;5.00;;;;;;;;;;5113021;28;20038;-71
2021/12/13 07:46:11;;;;;;;12.13;5.30;;;;;;;;;;5113380;28;20058;-71
2021/12/13 07:48:39;;;;;;;15.20;5.70;;;;;;;;;;5114719;28;20031;-71
2021/12/13 07:51:28;;;;;;;20.50;5.32;;;;;;;;;;5117046;28;20035;-70
2021/12/13 07:53:56;;;;;;;14.20;5.07;;;;;;;;;;5116854;28;20027;-71
2021/12/13 07:56:28;;;;;;;15.73;5.40;;;;;;;;;;5117196;28;20532;-71
2021/12/13 07:59:05;;;;;;;13.73;4.85;;;;;;;;;;5116819;28;20032;-71
2021/12/13 08:01:33;;;;;;;16.25;5.25;;;;;;;;;;5117105;28;20031;-70
2021/12/13 08:04:07;;;;;;;17.75;4.78;;;;;;;;;;5116627;28;20474;-70
2021/12/13 08:06:38;;;;;;;14.57;4.60;;;;;;;;;;5116823;28;20032;-70
2021/12/13 08:09:05;;;;;;;;;;;;;;;;;;5117359;28;20102;-70
2021/12/13 08:11:48;;;;;;;13.77;5.35;;;;;;;;;;5116659;28;19922;-71
2021/12/13 08:14:23;;;;;;;11.50;4.82;;;;;;;;;;5116644;28;20085;-71
2021/12/13 08:16:49;;;;;;;13.23;4.85;;;;;;;;;;5116781;28;20875;-70
2021/12/13 08:19:19;;;;;;;12.88;4.28;;;;;;;;;;5116704;28;20028;-71
2021/12/13 08:21:47;;;;;;;;;;;;;;;;;;5116909;28;20425;-71
2021/12/13 08:24:19;;;;;;;19.05;4.30;;;;;;;;;;5116514;28;19920;-71
2021/12/13 08:26:45;;;;;;;18.55;4.45;;;;;;;;;;5116800;28;20065;-71
2021/12/13 08:29:19;;;;;;;10.93;4.57;;;;;;;;;;5115536;28;20036;-70
2021/12/13 08:31:50;;;;;;;16.27;5.13;;;;;;;;;;5113300;28;20084;-70
2021/12/13 08:34:22;;;;;;;;;;;;;;;;;;5116567;28;20103;-70
2021/12/13 08:36:50;;;;;;;11.32;4.85;;;;;;;;;;5116378;28;19950;-71
2021/12/13 08:39:29;;;;;;;12.88;5.22;;;;;;;;;;5116338;28;20027;-69
2021/12/13 08:42:09;;;;;;;15.60;4.88;;;;;;;;;;5116312;28;20084;-68
2021/12/13 08:45:07;;;;;;;12.93;4.40;;;;;;;;;;5116135;28;20067;-68
2021/12/13 08:47:43;;;;;;;9.55;4.55;;;;;;;;;;5107825;27;20104;-68
2021/12/13 08:50:16;;;;;;;16.60;4.82;;;;;;;;;;5116028;28;20027;-68
2021/12/13 08:52:45;;;;;;;10.93;4.40;;;;;;;;;;5115866;28;20433;-68
2021/12/13 08:55:11;;;;;;;13.30;4.20;;;;;;;;;;5115777;28;20433;-68
2021/12/13 08:57:39;;;;;;;12.82;4.70;;;;;;;;;;5115931;28;20115;-68
2021/12/13 09:00:35;;;;;;;23.23;5.28;;;;;;;;;;5114850;28;20043;-68
2021/12/13 09:03:26;;;;;;;17.58;4.95;;;;;;;;;;5115657;28;20123;-68
2021/12/13 09:06:23;;;;;;;18.40;5.38;;;;;;;;;;5115605;28;20069;-69
2021/12/13 09:09:15;;;;;;;14.50;4.78;;;;;;;;;;5114740;28;20043;-68
2021/12/13 09:11:56;;;;;;;9.82;4.00;;;;;;;;;;5115598;27;20027;-68
2021/12/13 09:14:50;;;;;;;13.75;4.75;;;;;;;;;;5115274;28;20111;-68
2021/12/13 09:17:39;;;;;;;14.20;5.45;;;;;;;;;;5102974;28;20039;-68
2021/12/13 09:20:13;;;;;;;15.85;4.25;;;;;;;;;;5115184;28;20055;-68
2021/12/13 09:22:39;;;;;;;12.63;4.20;;;;;;;;;;5115263;28;20480;-67
2021/12/13 09:25:10;;;;;;;15.10;4.57;;;;;;;;;;5115348;28;20038;-68
2021/12/13 09:27:51;;;;;;;15.75;3.92;;;;;;;;;;5115357;27;20365;-68
2021/12/13 09:30:44;;;;;;;9.95;3.92;;;;;;;;;;5111212;28;20031;-68
2021/12/13 09:33:31;;;;;;;8.15;3.00;;;;;;;;;;5114797;28;20035;-68
2021/12/13 09:36:19;;;;;;;6.15;2.40;;;;;;;;;;5115034;28;20023;-68
2021/12/13 09:38:51;;;;;;;7.22;2.60;;;;;;;;;;5115096;28;20065;-68
2021/12/13 09:41:23;;;;;;;6.95;2.60;;;;;;;;;;5115282;28;20028;-68
2021/12/13 09:43:51;;;;;;;7.53;2.45;;;;;;;;;;5114649;27;20376;-69
2021/12/13 09:46:30;;;;;;;7.03;2.35;;;;;;;;;;5114863;28;20038;-69
2021/12/13 09:48:59;;;;;;;6.07;2.13;;;;;;;;;;5114804;28;20034;-68
2021/12/13 09:51:31;;;;;;;4.88;2.40;;;;;;;;;;5115057;28;20023;-68
2021/12/13 09:54:00;;;;;;;8.43;2.72;;;;;;;;;;5114692;28;20453;-68
2021/12/13 09:56:32;;;;;;;6.40;2.10;;;;;;;;;;5114736;28;20031;-69
2021/12/13 09:59:24;;;;;;;4.32;1.70;;;;;;;;;;5114730;28;20027;-68
2021/12/13 10:01:52;;;;;;;8.80;1.80;;;;;;;;;;5114423;28;20043;-70
2021/12/13 10:04:24;;;;;;;4.43;2.10;;;;;;;;;;5114215;28;20028;-70
2021/12/13 10:07:04;;;;;;;3.88;1.60;;;;;;;;;;5114652;28;20031;-70
2021/12/13 10:09:35;;;;;;;5.68;1.90;;;;;;;;;;5114584;28;20028;-70
2021/12/13 10:12:05;;;;;;;4.22;1.58;;;;;;;;;;5114390;28;20115;-71
2021/12/13 10:14:44;;;;;;;5.22;1.60;;;;;;;;;;5114507;28;20023;-70
2021/12/13 10:17:12;;;;;;;2.88;1.50;;;;;;;;;;5114400;28;20036;-70
2021/12/13 10:19:44;;;;;;;4.68;1.85;;;;;;;;;;5114267;27;20373;-70
2021/12/13 10:22:12;;;;;;;6.90;2.13;;;;;;;;;;5114517;28;20077;-70
2021/12/13 10:24:51;;;;;;;4.88;1.90;;;;;;;;;;5114035;28;20066;-70
2021/12/13 10:27:19;;;;;;;5.30;1.20;;;;;;;;;;5114266;28;20028;-70
2021/12/13 10:29:53;;;;;;;2.05;1.05;;;;;;;;;;5111372;28;20430;-70
2021/12/13 10:32:34;;;;;;;5.40;1.30;;;;;;;;;;5113830;28;20038;-70
2021/12/13 10:35:15;;;;;;;5.93;1.70;;;;;;;;;;5114129;28;20028;-70
2021/12/13 10:37:45;;;;;;;2.80;1.42;;;;;;;;;;5114457;28;20039;-70
2021/12/13 10:40:36;;;;;;;5.67;1.90;;;;;;;;;;5113884;28;20043;-70
2021/12/13 10:43:05;;;;;;;3.65;1.50;;;;;;;;;;5113855;28;20399;-70
2021/12/13 10:45:40;;;;;;;4.75;1.42;;;;;;;;;;5114316;28;20031;-70
2021/12/13 10:48:09;;;;;;;4.22;1.60;;;;;;;;;;5113963;28;20031;-69
2021/12/13 10:50:42;;;;;;;4.72;1.33;;;;;;;;;;5113971;28;20115;-70
2021/12/13 10:53:10;;;;;;;2.67;1.50;;;;;;;;;;5113773;28;20443;-69
2021/12/13 10:55:53;;;;;;;10.05;1.80;;;;;;;;;;5113901;28;20042;-69
2021/12/13 10:58:22;;;;;;;3.67;1.20;;;;;;;;;;5114141;28;20032;-70
2021/12/13 11:00:56;;;;;;;6.32;1.30;;;;;;;;;;5113766;28;20035;-70
2021/12/13 11:03:24;;;;;;;3.58;1.50;;;;;;;;;;5113448;28;20540;-70
2021/12/13 11:05:51;;;;;;;2.28;1.23;;;;;;;;;;5113825;28;20092;-70
2021/12/13 11:08:19;;;;;;;4.93;1.40;;;;;;;;;;5113653;28;20030;-70
2021/12/13 11:11:04;;;;;;;4.60;1.35;;;;;;;;;;5113727;28;20035;-70
2021/12/13 11:13:35;;;;;;;4.43;1.23;;;;;;;;;;5113596;28;20023;-70
2021/12/13 11:16:06;;;;;;;5.00;1.40;;;;;;;;;;5113839;28;20157;-70
2021/12/13 11:18:33;;;;;;;3.88;1.60;;;;;;;;;;5113734;28;20106;-70
2021/12/13 11:21:05;;;;;;;7.50;1.70;;;;;;;;;;5113364;28;20047;-70
2021/12/13 11:23:30;;;;;;;5.85;1.58;;;;;;;;;;5114423;28;20028;-69
2021/12/13 11:26:01;;;;;;;5.85;2.45;;;;;;;;;;5117826;28;20116;-70
2021/12/13 11:28:29;;;;;;;5.05;2.00;;;;;;;;;;5117865;28;20023;-70
2021/12/13 11:30:56;;;;;;;3.65;1.52;;;;;;;;;;5112722;28;20429;-70
2021/12/13 11:34:00;;;;;;;5.45;1.70;;;;;;;;;;5117379;28;20027;-70
2021/12/13 11:36:47;;;;;;;3.25;1.60;;;;;;;;;;5105160;28;20044;-70
2021/12/13 11:39:49;;;;;;;6.60;3.58;;;;;;;;;;5117728;28;20110;-70
2021/12/13 11:42:41;;;;;;;5.35;2.63;;;;;;;;;;5117376;27;20035;-70
2021/12/13 11:45:13;;;;;;;6.28;3.00;;;;;;;;;;5117075;28;20039;-70
2021/12/13 11:48:17;;;;;;;5.10;2.00;;;;;;;;;;5117654;28;20059;-70
2021/12/13 11:50:49;;;;;;;5.13;2.13;;;;;;;;;;5117004;28;20046;-70
2021/12/13 11:53:31;;;;;;;7.72;2.28;;;;;;;;;;5117086;27;20038;-70
2021/12/13 11:56:26;;;;;;;7.35;2.85;;;;;;;;;;5117262;28;20037;-69
2021/12/13 11:59:10;;;;;;;8.35;2.80;;;;;;;;;;5117154;28;20027;-70
2021/12/13 12:01:48;;;;;;;5.75;2.58;;;;;;;;;;5117210;28;20036;-70
2021/12/13 12:04:51;;;;;;;4.53;1.73;;;;;;;;;;5116584;28;20042;-70
2021/12/13 12:07:44;;;;;;;4.07;1.95;;;;;;;;;;5116853;28;20064;-70
2021/12/13 12:10:47;;;;;;;5.55;2.80;;;;;;;;;;5116886;28;20459;-70
2021/12/13 12:13:52;;;;;;;9.27;2.85;;;;;;;;;;5116728;28;20181;-70
2021/12/13 12:16:23;;;;;;;5.40;2.60;;;;;;;;;;5116641;27;20114;-70
2021/12/13 12:18:51;;;;;;;6.47;3.08;;;;;;;;;;5116777;28;20036;-70
2021/12/13 12:21:35;;;;;;;8.02;3.30;;;;;;;;;;5116232;28;20049;-70
2021/12/13 12:24:07;;;;;;;5.78;2.30;;;;;;;;;;5116423;28;20039;-70
2021/12/13 12:26:34;;;;;;;6.78;2.10;;;;;;;;;;5116582;28;20483;-70
2021/12/13 12:29:07;;;;;;;5.78;2.20;;;;;;;;;;5116396;28;20092;-70
2021/12/13 12:31:37;;;;;;;6.82;1.73;;;;;;;;;;5111247;27;20056;-70
2021/12/13 12:34:05;;;;;;;4.28;1.60;;;;;;;;;;5116106;28;20027;-70
2021/12/13 12:36:42;;;;;;;3.30;1.30;;;;;;;;;;5115173;28;20066;-71
2021/12/13 12:39:38;;;;;;;6.50;1.67;;;;;;;;;;5116249;28;20430;-70
2021/12/13 12:42:27;;;;;;;3.80;1.45;;;;;;;;;;5116288;28;20031;-70
2021/12/13 12:44:56;;;;;;;5.80;1.60;;;;;;;;;;5116111;28;20036;-71
2021/12/13 12:47:33;;;;;;;5.68;1.60;;;;;;;;;;5116110;28;20046;-70
2021/12/13 12:50:20;;;;;;;3.92;1.52;;;;;;;;;;5116484;28;20128;-68
2021/12/13 12:52:54;;;;;;;4.15;1.63;;;;;;;;;;5116002;28;20058;-70
2021/12/13 12:55:27;;;;;;;4.95;1.60;;;;;;;;;;5115765;28;20456;-71
2021/12/13 12:57:53;;;;;;;6.30;1.60;;;;;;;;;;5116016;28;20056;-71
2021/12/13 13:00:29;;;;;;;5.13;1.80;;;;;;;;;;5115869;28;20106;-68
2021/12/13 13:02:55;;;;;;;4.18;1.48;;;;;;;;;;5116196;28;20032;-71
2021/12/13 13:05:26;;;;;;;5.75;1.52;;;;;;;;;;5115554;28;20031;-71
2021/12/13 13:07:52;;;;;;;;;;;;;;;;;;5116392;28;20035;-69
2021/12/13 13:10:25;;;;;;;4.53;2.47;;;;;;;;;;5115949;28;19990;-69
2021/12/13 13:13:07;;;;;;;4.82;1.67;;;;;;;;;;5115795;28;20035;-69
2021/12/13 13:15:37;;;;;;;5.35;1.88;;;;;;;;;;5115469;28;20071;-69
2021/12/13 13:18:05;;;;;;;4.82;1.58;;;;;;;;;;5115545;28;20157;-69
2021/12/13 13:20:38;;;;;;;7.28;1.77;;;;;;;;;;5115147;28;20114;-69
2021/12/13 13:23:06;;;;;;;8.63;1.90;;;;;;;;;;5115384;28;20031;-69
2021/12/13 13:25:37;;;;;;;5.07;1.85;;;;;;;;;;5115167;28;20528;-69
2021/12/13 13:28:27;;;;;;;5.60;1.80;;;;;;;;;;5115343;28;20345;-69
2021/12/13 13:31:00;;;;;;;5.40;2.00;;;;;;;;;;5109610;28;20027;-69
2021/12/13 13:33:46;;;;;;;5.32;1.45;;;;;;;;;;5115491;28;20053;-69
2021/12/13 13:36:25;;;;;;;6.88;2.35;;;;;;;;;;5114835;28;20491;-69
2021/12/13 13:38:52;;;;;;;8.98;2.10;;;;;;;;;;5115199;28;20028;-69
2021/12/13 13:41:20;;;;;;;5.57;1.30;;;;;;;;;;5115020;28;20027;-68
2021/12/13 13:43:49;;;;;;;6.68;1.33;;;;;;;;;;5115017;28;20070;-71
2021/12/13 13:46:19;;;;;;;4.55;1.45;;;;;;;;;;5114389;28;20057;-69
2021/12/13 13:48:45;;;;;;;5.15;1.38;;;;;;;;;;5115029;28;20028;-69
2021/12/13 13:51:15;;;;;;;5.25;1.30;;;;;;;;;;5114970;28;20027;-69
2021/12/13 13:53:53;;;;;;;6.15;1.42;;;;;;;;;;5114911;28;20024;-70
2021/12/13 13:56:38;;;;;;;9.27;1.58;;;;;;;;;;5114829;28;20031;-67
2021/12/13 13:59:08;;;;;;;11.30;1.90;;;;;;;;;;5114903;28;20055;-67
2021/12/13 14:02:01;;;;;;;6.93;2.20;;;;;;;;;;5114693;28;20028;-68
2021/12/13 14:04:29;;;;;;;7.70;2.20;;;;;;;;;;5114176;28;20502;-68
2021/12/13 14:07:01;;;;;;;4.20;1.60;;;;;;;;;;5114735;28;20133;-68
2021/12/13 14:09:34;;;;;;;3.25;1.40;;;;;;;;;;5114342;28;20059;-67
2021/12/13 14:12:05;;;;;;;6.22;1.30;;;;;;;;;;5111157;28;20031;-68
2021/12/13 14:14:48;;;;;;;5.70;1.80;;;;;;;;;;5111682;28;20115;-68
2021/12/13 14:17:15;;;;;;;5.72;1.30;;;;;;;;;;5107027;28;20386;-70
2021/12/13 14:19:47;;;;;;;5.15;1.63;;;;;;;;;;5114053;27;20118;-68
2021/12/13 14:22:14;;;;;;;5.95;1.60;;;;;;;;;;5108866;28;20404;-69
2021/12/13 14:24:45;;;;;;;4.50;1.38;;;;;;;;;;5113726;28;20117;-69
2021/12/13 14:27:23;;;;;;;8.93;1.90;;;;;;;;;;5114061;28;20035;-69
2021/12/13 14:29:53;;;;;;;4.90;1.70;;;;;;;;;;5112104;28;20046;-69
2021/12/13 14:32:19;;;;;;;11.55;3.05;;;;;;;;;;5107406;28;20032;-69
2021/12/13 14:34:45;;;;;;;9.13;2.20;;;;;;;;;;5113639;28;20452;-67
2021/12/13 14:37:13;;;;;;;4.80;1.70;;;;;;;;;;5113819;28;20130;-67
2021/12/13 14:39:46;;;;;;;5.75;1.67;;;;;;;;;;5113669;28;20073;-68
2021/12/13 14:42:18;;;;;;;5.75;1.83;;;;;;;;;;5113067;28;20063;-68
2021/12/13 14:44:57;;;;;;;6.70;2.15;;;;;;;;;;5113545;27;20219;-68
2021/12/13 14:47:37;;;;;;;3.30;1.45;;;;;;;;;;5106564;28;20445;-68
2021/12/13 14:50:18;;;;;;;5.97;2.03;;;;;;;;;;5112385;28;20035;-68
2021/12/13 14:52:57;;;;;;;;;;;;;;;;;;5114001;28;20031;-68
2021/12/13 14:55:31;;;;;;;3.97;1.65;;;;;;;;;;5107251;28;19926;-68
2021/12/13 14:58:00;;;;;;;6.10;2.50;;;;;;;;;;5112830;28;20043;-68
2021/12/13 15:00:30;;;;;;;5.57;1.90;;;;;;;;;;5113094;28;20427;-67
2021/12/13 15:03:00;;;;;;;7.45;2.25;;;;;;;;;;5113303;28;20067;-67
2021/12/13 15:05:35;;;;;;;5.80;2.45;;;;;;;;;;5112943;28;20472;-68
2021/12/13 15:08:02;;;;;;;9.07;2.70;;;;;;;;;;5113335;28;20499;-67
2021/12/13 15:10:36;;;;;;;7.32;3.30;;;;;;;;;;5113014;28;20115;-67
2021/12/13 15:13:06;;;;;;;8.77;2.90;;;;;;;;;;5113250;28;20106;-68
2021/12/13 15:15:38;;;;;;;6.78;2.80;;;;;;;;;;5113055;28;20030;-67
2021/12/13 15:18:15;;;;;;;5.80;2.55;;;;;;;;;;5113139;28;20034;-67
2021/12/13 15:20:50;;;;;;;4.60;2.22;;;;;;;;;;5108801;28;20074;-67
2021/12/13 15:23:35;;;;;;;5.10;2.40;;;;;;;;;;5108807;28;20035;-67
2021/12/13 15:26:09;;;;;;;6.95;2.50;;;;;;;;;;5111846;28;20063;-67
2021/12/13 15:28:50;;;;;;;6.45;3.40;;;;;;;;;;5113141;28;20410;-67
2021/12/13 15:31:21;;;;;;;7.07;3.28;;;;;;;;;;5112853;28;20031;-67
2021/12/13 15:33:49;;;;;;;6.45;2.60;;;;;;;;;;5113061;28;20036;-67
2021/12/13 15:36:16;;;;;;;6.55;3.17;;;;;;;;;;5112831;28;20058;-68